sensor_id;sensor_type;location;lat;lon;timestamp;temperature;humidity
37412;DHT22;23278;52.110;6.050;2023-08-08T00:01:55;15.00;99.90
37412;DHT22;23278;52.110;6.050;2023-08-08T00:04:21;14.90;99.90
37412;DHT22;23278;52.110;6.050;2023-08-08T00:06:47;15.00;99.90
37412;DHT22;23278;52.110;6.050;2023-08-08T00:09:13;14.90;99.90
37412;DHT22;23278;52.110;6.050;2023-08-08T00:11:39;14.90;99.90
37412;DHT22;23278;52.110;6.050;2023-08-08T00:14:05;14.80;99.90
37412;DHT22;23278;52.110;6.050;2023-08-08T00:16:31;14.70;99.90
37412;DHT22;23278;52.110;6.050;2023-08-08T00:18:57;14.60;99.90
37412;DHT22;23278;52.110;6.050;2023-08-08T00:21:23;14.50;99.90
37412;DHT22;23278;52.110;6.050;2023-08-08T00:23:49;14.50;99.90
37412;DHT22;23278;52.110;6.050;2023-08-08T00:26:15;14.50;99.90
37412;DHT22;23278;52.110;6.050;2023-08-08T00:28:41;14.50;99.90
37412;DHT22;23278;52.110;6.050;2023-08-08T00:31:07;14.40;99.90
37412;DHT22;23278;52.110;6.050;2023-08-08T00:33:33;14.50;99.90
37412;DHT22;23278;52.110;6.050;2023-08-08T00:35:59;14.50;99.90
37412;DHT22;23278;52.110;6.050;2023-08-08T00:38:26;14.50;99.90
37412;DHT22;23278;52.110;6.050;2023-08-08T00:40:52;14.50;99.90
37412;DHT22;23278;52.110;6.050;2023-08-08T00:43:18;14.40;99.90
37412;DHT22;23278;52.110;6.050;2023-08-08T00:45:44;14.40;99.90
37412;DHT22;23278;52.110;6.050;2023-08-08T00:48:11;14.40;99.90
37412;DHT22;23278;52.110;6.050;2023-08-08T00:50:37;14.30;99.90
37412;DHT22;23278;52.110;6.050;2023-08-08T00:53:04;14.30;99.90
37412;DHT22;23278;52.110;6.050;2023-08-08T00:55:31;14.40;99.90
37412;DHT22;23278;52.110;6.050;2023-08-08T00:57:57;14.30;99.90
37412;DHT22;23278;52.110;6.050;2023-08-08T01:00:23;14.30;99.90
37412;DHT22;23278;52.110;6.050;2023-08-08T01:02:48;14.30;99.90
37412;DHT22;23278;52.110;6.050;2023-08-08T01:05:15;14.20;99.90
37412;DHT22;23278;52.110;6.050;2023-08-08T01:08:06;14.30;99.90
37412;DHT22;23278;52.110;6.050;2023-08-08T01:10:42;14.20;99.90
37412;DHT22;23278;52.110;6.050;2023-08-08T01:13:21;14.20;99.90
37412;DHT22;23278;52.110;6.050;2023-08-08T01:15:49;14.30;99.90
37412;DHT22;23278;52.110;6.050;2023-08-08T01:18:16;14.20;99.90
37412;DHT22;23278;52.110;6.050;2023-08-08T01:20:43;14.30;99.90
37412;DHT22;23278;52.110;6.050;2023-08-08T01:23:46;14.30;99.90
37412;DHT22;23278;52.110;6.050;2023-08-08T01:26:18;14.40;99.90
37412;DHT22;23278;52.110;6.050;2023-08-08T01:28:44;14.40;99.90
37412;DHT22;23278;52.110;6.050;2023-08-08T01:31:10;14.30;99.90
37412;DHT22;23278;52.110;6.050;2023-08-08T01:33:37;14.30;99.90
37412;DHT22;23278;52.110;6.050;2023-08-08T01:36:09;14.30;99.90
37412;DHT22;23278;52.110;6.050;2023-08-08T01:38:41;14.20;99.90
37412;DHT22;23278;52.110;6.050;2023-08-08T01:41:08;14.20;99.90
37412;DHT22;23278;52.110;6.050;2023-08-08T01:43:36;14.20;99.90
37412;DHT22;23278;52.110;6.050;2023-08-08T01:46:04;14.30;99.90
37412;DHT22;23278;52.110;6.050;2023-08-08T01:48:29;14.30;99.90
37412;DHT22;23278;52.110;6.050;2023-08-08T01:50:55;14.40;99.90
37412;DHT22;23278;52.110;6.050;2023-08-08T01:53:21;14.30;99.90
37412;DHT22;23278;52.110;6.050;2023-08-08T01:55:47;14.40;99.90
37412;DHT22;23278;52.110;6.050;2023-08-08T01:58:13;14.50;99.90
37412;DHT22;23278;52.110;6.050;2023-08-08T02:00:39;14.50;99.90
37412;DHT22;23278;52.110;6.050;2023-08-08T02:03:06;14.50;99.90
37412;DHT22;23278;52.110;6.050;2023-08-08T02:05:32;14.50;99.90
37412;DHT22;23278;52.110;6.050;2023-08-08T02:07:58;14.40;99.90
37412;DHT22;23278;52.110;6.050;2023-08-08T02:10:24;14.40;99.90
37412;DHT22;23278;52.110;6.050;2023-08-08T02:12:50;14.40;99.90
37412;DHT22;23278;52.110;6.050;2023-08-08T02:15:16;14.40;99.90
37412;DHT22;23278;52.110;6.050;2023-08-08T02:17:42;14.30;99.90
37412;DHT22;23278;52.110;6.050;2023-08-08T02:20:08;14.30;99.90
37412;DHT22;23278;52.110;6.050;2023-08-08T02:22:34;14.30;99.90
37412;DHT22;23278;52.110;6.050;2023-08-08T02:25:01;14.20;99.90
37412;DHT22;23278;52.110;6.050;2023-08-08T02:27:27;14.20;99.90
37412;DHT22;23278;52.110;6.050;2023-08-08T02:29:53;14.10;99.90
37412;DHT22;23278;52.110;6.050;2023-08-08T02:32:19;14.10;99.90
37412;DHT22;23278;52.110;6.050;2023-08-08T02:34:45;14.10;99.90
37412;DHT22;23278;52.110;6.050;2023-08-08T02:37:12;14.10;99.90
37412;DHT22;23278;52.110;6.050;2023-08-08T02:39:42;14.10;99.90
37412;DHT22;23278;52.110;6.050;2023-08-08T02:42:08;14.10;99.90
37412;DHT22;23278;52.110;6.050;2023-08-08T02:44:34;14.10;99.90
37412;DHT22;23278;52.110;6.050;2023-08-08T02:47:00;14.10;99.90
37412;DHT22;23278;52.110;6.050;2023-08-08T02:49:26;14.20;99.90
37412;DHT22;23278;52.110;6.050;2023-08-08T02:51:52;14.20;99.90
37412;DHT22;23278;52.110;6.050;2023-08-08T02:54:18;14.20;99.90
37412;DHT22;23278;52.110;6.050;2023-08-08T02:56:44;14.30;99.90
37412;DHT22;23278;52.110;6.050;2023-08-08T02:59:11;14.20;99.90
37412;DHT22;23278;52.110;6.050;2023-08-08T03:01:37;14.20;99.90
37412;DHT22;23278;52.110;6.050;2023-08-08T03:04:09;14.20;99.90
37412;DHT22;23278;52.110;6.050;2023-08-08T03:06:35;14.20;99.90
37412;DHT22;23278;52.110;6.050;2023-08-08T03:09:02;14.10;99.90
37412;DHT22;23278;52.110;6.050;2023-08-08T03:11:28;14.10;99.90
37412;DHT22;23278;52.110;6.050;2023-08-08T03:13:54;14.10;99.90
37412;DHT22;23278;52.110;6.050;2023-08-08T03:16:21;14.20;99.90
37412;DHT22;23278;52.110;6.050;2023-08-08T03:18:47;14.20;99.90
37412;DHT22;23278;52.110;6.050;2023-08-08T03:21:13;14.20;99.90
37412;DHT22;23278;52.110;6.050;2023-08-08T03:23:39;14.30;99.90
37412;DHT22;23278;52.110;6.050;2023-08-08T03:26:05;14.40;99.90
37412;DHT22;23278;52.110;6.050;2023-08-08T03:28:32;14.40;99.90
37412;DHT22;23278;52.110;6.050;2023-08-08T03:30:58;14.50;99.90
37412;DHT22;23278;52.110;6.050;2023-08-08T03:33:25;14.50;99.90
37412;DHT22;23278;52.110;6.050;2023-08-08T03:35:51;14.50;99.90
37412;DHT22;23278;52.110;6.050;2023-08-08T03:38:17;14.50;99.90
37412;DHT22;23278;52.110;6.050;2023-08-08T03:40:43;14.60;99.90
37412;DHT22;23278;52.110;6.050;2023-08-08T03:43:09;14.60;99.90
37412;DHT22;23278;52.110;6.050;2023-08-08T03:45:35;14.60;99.90
37412;DHT22;23278;52.110;6.050;2023-08-08T03:48:01;14.60;99.90
37412;DHT22;23278;52.110;6.050;2023-08-08T03:50:28;14.60;99.90
37412;DHT22;23278;52.110;6.050;2023-08-08T03:52:55;14.60;99.90
37412;DHT22;23278;52.110;6.050;2023-08-08T03:55:22;14.60;99.90
37412;DHT22;23278;52.110;6.050;2023-08-08T03:57:48;14.50;99.90
37412;DHT22;23278;52.110;6.050;2023-08-08T04:00:14;14.40;99.90
37412;DHT22;23278;52.110;6.050;2023-08-08T04:02:41;14.40;99.90
37412;DHT22;23278;52.110;6.050;2023-08-08T04:05:07;14.40;99.90
37412;DHT22;23278;52.110;6.050;2023-08-08T04:07:34;14.40;99.90
37412;DHT22;23278;52.110;6.050;2023-08-08T04:10:00;14.30;99.90
37412;DHT22;23278;52.110;6.050;2023-08-08T04:12:29;14.30;99.90
37412;DHT22;23278;52.110;6.050;2023-08-08T04:14:55;14.30;99.90
37412;DHT22;23278;52.110;6.050;2023-08-08T04:17:20;14.30;99.90
37412;DHT22;23278;52.110;6.050;2023-08-08T04:19:46;14.30;99.90
37412;DHT22;23278;52.110;6.050;2023-08-08T04:22:13;14.30;99.90
37412;DHT22;23278;52.110;6.050;2023-08-08T04:24:41;14.40;99.90
37412;DHT22;23278;52.110;6.050;2023-08-08T04:27:07;14.40;99.90
37412;DHT22;23278;52.110;6.050;2023-08-08T04:29:34;14.40;99.90
37412;DHT22;23278;52.110;6.050;2023-08-08T04:31:59;14.50;99.90
37412;DHT22;23278;52.110;6.050;2023-08-08T04:34:25;14.50;99.90
37412;DHT22;23278;52.110;6.050;2023-08-08T04:36:51;14.50;99.90
37412;DHT22;23278;52.110;6.050;2023-08-08T04:39:17;14.40;99.90
37412;DHT22;23278;52.110;6.050;2023-08-08T04:41:43;14.50;99.90
37412;DHT22;23278;52.110;6.050;2023-08-08T04:44:09;14.50;99.90
37412;DHT22;23278;52.110;6.050;2023-08-08T04:46:35;14.60;99.90
37412;DHT22;23278;52.110;6.050;2023-08-08T04:49:00;14.50;99.90
37412;DHT22;23278;52.110;6.050;2023-08-08T04:51:26;14.60;99.90
37412;DHT22;23278;52.110;6.050;2023-08-08T04:53:52;14.60;99.90
37412;DHT22;23278;52.110;6.050;2023-08-08T04:56:18;14.60;99.90
37412;DHT22;23278;52.110;6.050;2023-08-08T04:58:44;14.60;99.90
37412;DHT22;23278;52.110;6.050;2023-08-08T05:01:10;14.60;99.90
37412;DHT22;23278;52.110;6.050;2023-08-08T05:03:40;14.50;99.90
37412;DHT22;23278;52.110;6.050;2023-08-08T05:06:06;14.50;99.90
37412;DHT22;23278;52.110;6.050;2023-08-08T05:08:32;14.40;99.90
37412;DHT22;23278;52.110;6.050;2023-08-08T05:10:57;14.50;99.90
37412;DHT22;23278;52.110;6.050;2023-08-08T05:13:23;14.50;99.90
37412;DHT22;23278;52.110;6.050;2023-08-08T05:15:49;14.60;99.90
37412;DHT22;23278;52.110;6.050;2023-08-08T05:18:15;14.60;99.90
37412;DHT22;23278;52.110;6.050;2023-08-08T05:20:41;14.70;99.90
37412;DHT22;23278;52.110;6.050;2023-08-08T05:23:07;14.70;99.90
37412;DHT22;23278;52.110;6.050;2023-08-08T05:25:33;14.80;99.90
37412;DHT22;23278;52.110;6.050;2023-08-08T05:27:59;14.90;99.90
37412;DHT22;23278;52.110;6.050;2023-08-08T05:30:25;14.90;99.90
37412;DHT22;23278;52.110;6.050;2023-08-08T05:32:50;15.00;99.90
37412;DHT22;23278;52.110;6.050;2023-08-08T05:35:16;15.00;99.90
37412;DHT22;23278;52.110;6.050;2023-08-08T05:37:42;15.00;99.90
37412;DHT22;23278;52.110;6.050;2023-08-08T05:40:08;15.00;99.90
37412;DHT22;23278;52.110;6.050;2023-08-08T05:42:37;15.10;99.90
37412;DHT22;23278;52.110;6.050;2023-08-08T05:45:03;15.10;99.90
37412;DHT22;23278;52.110;6.050;2023-08-08T05:47:29;15.10;99.90
37412;DHT22;23278;52.110;6.050;2023-08-08T05:49:55;15.10;99.90
37412;DHT22;23278;52.110;6.050;2023-08-08T05:52:21;15.10;99.90
37412;DHT22;23278;52.110;6.050;2023-08-08T05:54:47;15.20;99.90
37412;DHT22;23278;52.110;6.050;2023-08-08T05:57:13;15.10;99.90
37412;DHT22;23278;52.110;6.050;2023-08-08T05:59:39;15.20;99.90
37412;DHT22;23278;52.110;6.050;2023-08-08T06:02:06;15.40;99.90
37412;DHT22;23278;52.110;6.050;2023-08-08T06:04:32;15.40;99.90
37412;DHT22;23278;52.110;6.050;2023-08-08T06:06:57;15.40;99.90
37412;DHT22;23278;52.110;6.050;2023-08-08T06:09:25;15.30;99.90
37412;DHT22;23278;52.110;6.050;2023-08-08T06:11:51;15.30;99.90
37412;DHT22;23278;52.110;6.050;2023-08-08T06:14:16;15.20;99.90
37412;DHT22;23278;52.110;6.050;2023-08-08T06:16:43;15.20;99.90
37412;DHT22;23278;52.110;6.050;2023-08-08T06:19:09;15.20;99.90
37412;DHT22;23278;52.110;6.050;2023-08-08T06:21:36;15.30;99.90
37412;DHT22;23278;52.110;6.050;2023-08-08T06:24:01;15.30;99.90
37412;DHT22;23278;52.110;6.050;2023-08-08T06:26:27;15.50;99.90
37412;DHT22;23278;52.110;6.050;2023-08-08T06:28:53;15.50;99.90
37412;DHT22;23278;52.110;6.050;2023-08-08T06:31:19;15.60;99.90
37412;DHT22;23278;52.110;6.050;2023-08-08T06:33:45;15.60;99.90
37412;DHT22;23278;52.110;6.050;2023-08-08T06:36:11;15.50;99.90
37412;DHT22;23278;52.110;6.050;2023-08-08T06:38:37;15.60;99.90
37412;DHT22;23278;52.110;6.050;2023-08-08T06:41:03;15.60;99.90
37412;DHT22;23278;52.110;6.050;2023-08-08T06:43:30;15.60;99.90
37412;DHT22;23278;52.110;6.050;2023-08-08T06:45:57;15.60;99.90
37412;DHT22;23278;52.110;6.050;2023-08-08T06:48:25;15.60;99.90
37412;DHT22;23278;52.110;6.050;2023-08-08T06:50:51;15.70;99.90
37412;DHT22;23278;52.110;6.050;2023-08-08T06:53:18;15.70;99.90
37412;DHT22;23278;52.110;6.050;2023-08-08T06:55:43;15.80;99.90
37412;DHT22;23278;52.110;6.050;2023-08-08T06:58:09;15.80;99.90
37412;DHT22;23278;52.110;6.050;2023-08-08T07:00:35;15.90;99.90
37412;DHT22;23278;52.110;6.050;2023-08-08T07:03:01;15.90;99.90
37412;DHT22;23278;52.110;6.050;2023-08-08T07:05:27;15.90;99.90
37412;DHT22;23278;52.110;6.050;2023-08-08T07:07:53;16.00;99.90
37412;DHT22;23278;52.110;6.050;2023-08-08T07:10:19;16.00;99.90
37412;DHT22;23278;52.110;6.050;2023-08-08T07:12:45;16.10;99.90
37412;DHT22;23278;52.110;6.050;2023-08-08T07:15:12;16.20;99.90
37412;DHT22;23278;52.110;6.050;2023-08-08T07:17:38;16.20;99.90
37412;DHT22;23278;52.110;6.050;2023-08-08T07:20:05;16.20;99.90
37412;DHT22;23278;52.110;6.050;2023-08-08T07:22:32;16.30;99.90
37412;DHT22;23278;52.110;6.050;2023-08-08T07:24:58;16.40;99.90
37412;DHT22;23278;52.110;6.050;2023-08-08T07:27:25;16.40;99.90
37412;DHT22;23278;52.110;6.050;2023-08-08T07:29:51;16.50;99.90
37412;DHT22;23278;52.110;6.050;2023-08-08T07:32:17;16.60;99.90
37412;DHT22;23278;52.110;6.050;2023-08-08T07:34:43;16.70;99.90
37412;DHT22;23278;52.110;6.050;2023-08-08T07:37:09;16.80;99.90
37412;DHT22;23278;52.110;6.050;2023-08-08T07:39:35;16.90;99.90
37412;DHT22;23278;52.110;6.050;2023-08-08T07:42:01;17.10;99.90
37412;DHT22;23278;52.110;6.050;2023-08-08T07:44:27;17.20;99.50
37412;DHT22;23278;52.110;6.050;2023-08-08T07:46:53;17.30;98.90
37412;DHT22;23278;52.110;6.050;2023-08-08T07:49:18;17.30;98.50
37412;DHT22;23278;52.110;6.050;2023-08-08T07:51:44;17.30;97.80
37412;DHT22;23278;52.110;6.050;2023-08-08T07:54:10;17.30;97.70
37412;DHT22;23278;52.110;6.050;2023-08-08T07:56:37;17.30;97.00
37412;DHT22;23278;52.110;6.050;2023-08-08T07:59:03;17.30;96.70
37412;DHT22;23278;52.110;6.050;2023-08-08T08:01:29;17.30;96.30
37412;DHT22;23278;52.110;6.050;2023-08-08T08:03:55;17.30;96.70
37412;DHT22;23278;52.110;6.050;2023-08-08T08:06:21;17.40;97.00
37412;DHT22;23278;52.110;6.050;2023-08-08T08:08:47;17.50;96.60
37412;DHT22;23278;52.110;6.050;2023-08-08T08:11:13;17.50;96.40
37412;DHT22;23278;52.110;6.050;2023-08-08T08:13:41;17.60;95.70
37412;DHT22;23278;52.110;6.050;2023-08-08T08:16:07;17.70;95.70
37412;DHT22;23278;52.110;6.050;2023-08-08T08:18:33;17.90;95.20
37412;DHT22;23278;52.110;6.050;2023-08-08T08:21:01;18.00;94.60
37412;DHT22;23278;52.110;6.050;2023-08-08T08:23:27;18.10;94.60
37412;DHT22;23278;52.110;6.050;2023-08-08T08:25:53;18.20;94.40
37412;DHT22;23278;52.110;6.050;2023-08-08T08:28:19;18.40;94.30
37412;DHT22;23278;52.110;6.050;2023-08-08T08:30:45;18.80;93.40
37412;DHT22;23278;52.110;6.050;2023-08-08T08:33:11;19.10;92.30
37412;DHT22;23278;52.110;6.050;2023-08-08T08:35:37;19.40;91.50
37412;DHT22;23278;52.110;6.050;2023-08-08T08:38:03;19.40;90.00
37412;DHT22;23278;52.110;6.050;2023-08-08T08:40:36;19.50;88.50
37412;DHT22;23278;52.110;6.050;2023-08-08T08:43:04;19.70;87.90
37412;DHT22;23278;52.110;6.050;2023-08-08T08:45:31;19.70;85.90
37412;DHT22;23278;52.110;6.050;2023-08-08T08:47:59;19.70;84.40
37412;DHT22;23278;52.110;6.050;2023-08-08T08:50:31;19.90;84.10
37412;DHT22;23278;52.110;6.050;2023-08-08T08:52:57;20.00;83.20
37412;DHT22;23278;52.110;6.050;2023-08-08T08:55:25;19.90;81.20
37412;DHT22;23278;52.110;6.050;2023-08-08T08:57:52;19.80;80.20
37412;DHT22;23278;52.110;6.050;2023-08-08T09:00:18;19.70;79.10
37412;DHT22;23278;52.110;6.050;2023-08-08T09:02:45;19.70;79.40
37412;DHT22;23278;52.110;6.050;2023-08-08T09:05:12;19.90;78.00
37412;DHT22;23278;52.110;6.050;2023-08-08T09:07:39;20.00;77.20
37412;DHT22;23278;52.110;6.050;2023-08-08T09:10:05;20.30;76.70
37412;DHT22;23278;52.110;6.050;2023-08-08T09:12:31;20.40;74.90
37412;DHT22;23278;52.110;6.050;2023-08-08T09:14:58;20.40;74.80
37412;DHT22;23278;52.110;6.050;2023-08-08T09:17:28;20.50;74.90
37412;DHT22;23278;52.110;6.050;2023-08-08T09:19:54;20.60;73.70
37412;DHT22;23278;52.110;6.050;2023-08-08T09:22:21;20.70;72.80
37412;DHT22;23278;52.110;6.050;2023-08-08T09:24:47;20.90;72.80
37412;DHT22;23278;52.110;6.050;2023-08-08T09:27:14;21.40;71.90
37412;DHT22;23278;52.110;6.050;2023-08-08T09:29:41;21.60;71.70
37412;DHT22;23278;52.110;6.050;2023-08-08T09:32:08;21.90;70.70
37412;DHT22;23278;52.110;6.050;2023-08-08T09:34:35;22.20;68.40
37412;DHT22;23278;52.110;6.050;2023-08-08T09:37:01;22.40;67.00
37412;DHT22;23278;52.110;6.050;2023-08-08T09:39:28;22.40;63.70
37412;DHT22;23278;52.110;6.050;2023-08-08T09:41:58;22.20;63.70
37412;DHT22;23278;52.110;6.050;2023-08-08T09:44:25;22.10;64.90
37412;DHT22;23278;52.110;6.050;2023-08-08T09:46:52;22.00;65.50
37412;DHT22;23278;52.110;6.050;2023-08-08T09:49:19;22.20;65.80
37412;DHT22;23278;52.110;6.050;2023-08-08T09:51:48;22.70;64.30
37412;DHT22;23278;52.110;6.050;2023-08-08T09:54:15;23.00;63.30
37412;DHT22;23278;52.110;6.050;2023-08-08T09:56:42;23.40;61.60
37412;DHT22;23278;52.110;6.050;2023-08-08T09:59:09;23.30;60.10
37412;DHT22;23278;52.110;6.050;2023-08-08T10:01:37;23.30;59.60
37412;DHT22;23278;52.110;6.050;2023-08-08T10:04:06;23.60;60.00
37412;DHT22;23278;52.110;6.050;2023-08-08T10:06:32;24.10;58.30
37412;DHT22;23278;52.110;6.050;2023-08-08T10:08:59;24.30;58.50
37412;DHT22;23278;52.110;6.050;2023-08-08T10:11:26;24.70;56.60
37412;DHT22;23278;52.110;6.050;2023-08-08T10:13:53;24.80;54.90
37412;DHT22;23278;52.110;6.050;2023-08-08T10:16:19;24.40;54.90
37412;DHT22;23278;52.110;6.050;2023-08-08T10:18:55;23.80;56.00
37412;DHT22;23278;52.110;6.050;2023-08-08T10:21:25;23.70;55.50
37412;DHT22;23278;52.110;6.050;2023-08-08T10:24:03;23.60;54.50
37412;DHT22;23278;52.110;6.050;2023-08-08T10:26:30;23.80;55.30
37412;DHT22;23278;52.110;6.050;2023-08-08T10:28:57;24.30;54.20
37412;DHT22;23278;52.110;6.050;2023-08-08T10:31:23;24.70;52.40
37412;DHT22;23278;52.110;6.050;2023-08-08T10:33:49;24.90;52.20
37412;DHT22;23278;52.110;6.050;2023-08-08T10:36:26;25.00;52.50
37412;DHT22;23278;52.110;6.050;2023-08-08T10:38:52;24.90;51.30
37412;DHT22;23278;52.110;6.050;2023-08-08T10:41:21;24.20;53.30
37412;DHT22;23278;52.110;6.050;2023-08-08T10:46:26;23.80;54.30
37412;DHT22;23278;52.110;6.050;2023-08-08T10:48:54;24.80;52.70
37412;DHT22;23278;52.110;6.050;2023-08-08T10:51:20;24.80;52.20
37412;DHT22;23278;52.110;6.050;2023-08-08T10:53:47;25.70;51.00
37412;DHT22;23278;52.110;6.050;2023-08-08T10:56:18;26.70;49.60
37412;DHT22;23278;52.110;6.050;2023-08-08T10:58:48;28.00;47.30
37412;DHT22;23278;52.110;6.050;2023-08-08T11:01:14;29.20;45.90
37412;DHT22;23278;52.110;6.050;2023-08-08T11:03:47;29.50;44.40
37412;DHT22;23278;52.110;6.050;2023-08-08T11:06:15;28.80;44.30
37412;DHT22;23278;52.110;6.050;2023-08-08T11:08:41;28.80;44.70
37412;DHT22;23278;52.110;6.050;2023-08-08T11:11:07;28.10;45.70
37412;DHT22;23278;52.110;6.050;2023-08-08T11:13:33;27.50;46.60
37412;DHT22;23278;52.110;6.050;2023-08-08T11:15:59;27.00;46.60
37412;DHT22;23278;52.110;6.050;2023-08-08T11:18:27;26.60;46.70
37412;DHT22;23278;52.110;6.050;2023-08-08T11:20:54;26.70;47.10
37412;DHT22;23278;52.110;6.050;2023-08-08T11:23:19;26.90;46.10
37412;DHT22;23278;52.110;6.050;2023-08-08T11:25:46;27.10;45.90
37412;DHT22;23278;52.110;6.050;2023-08-08T11:28:13;28.10;45.70
37412;DHT22;23278;52.110;6.050;2023-08-08T11:30:42;29.70;44.40
37412;DHT22;23278;52.110;6.050;2023-08-08T11:33:09;30.40;42.20
37412;DHT22;23278;52.110;6.050;2023-08-08T11:35:36;29.60;42.30
37412;DHT22;23278;52.110;6.050;2023-08-08T11:38:04;29.20;42.20
37412;DHT22;23278;52.110;6.050;2023-08-08T11:40:30;28.80;42.90
37412;DHT22;23278;52.110;6.050;2023-08-08T11:42:58;28.10;43.70
37412;DHT22;23278;52.110;6.050;2023-08-08T11:45:24;27.90;43.70
37412;DHT22;23278;52.110;6.050;2023-08-08T11:47:52;28.20;43.90
37412;DHT22;23278;52.110;6.050;2023-08-08T11:50:20;29.20;42.20
37412;DHT22;23278;52.110;6.050;2023-08-08T11:52:50;29.20;42.30
37412;DHT22;23278;52.110;6.050;2023-08-08T11:55:16;30.10;42.00
37412;DHT22;23278;52.110;6.050;2023-08-08T11:57:42;31.20;40.10
37412;DHT22;23278;52.110;6.050;2023-08-08T12:00:10;31.60;39.90
37412;DHT22;23278;52.110;6.050;2023-08-08T12:02:42;31.90;39.40
37412;DHT22;23278;52.110;6.050;2023-08-08T12:05:10;32.10;39.50
37412;DHT22;23278;52.110;6.050;2023-08-08T12:07:37;33.30;39.50
37412;DHT22;23278;52.110;6.050;2023-08-08T12:10:13;34.30;38.00
37412;DHT22;23278;52.110;6.050;2023-08-08T12:12:38;34.80;37.10
37412;DHT22;23278;52.110;6.050;2023-08-08T12:15:08;35.10;36.10
37412;DHT22;23278;52.110;6.050;2023-08-08T12:17:35;34.30;36.50
37412;DHT22;23278;52.110;6.050;2023-08-08T12:20:04;32.90;38.10
37412;DHT22;23278;52.110;6.050;2023-08-08T12:22:31;32.20;38.50
37412;DHT22;23278;52.110;6.050;2023-08-08T12:24:57;31.50;38.90
37412;DHT22;23278;52.110;6.050;2023-08-08T12:27:23;30.70;39.80
37412;DHT22;23278;52.110;6.050;2023-08-08T12:29:49;30.00;40.50
37412;DHT22;23278;52.110;6.050;2023-08-08T12:32:15;29.20;41.40
37412;DHT22;23278;52.110;6.050;2023-08-08T12:34:41;28.50;42.50
37412;DHT22;23278;52.110;6.050;2023-08-08T12:37:06;27.80;43.80
37412;DHT22;23278;52.110;6.050;2023-08-08T12:39:33;27.20;44.90
37412;DHT22;23278;52.110;6.050;2023-08-08T12:41:59;26.80;44.90
37412;DHT22;23278;52.110;6.050;2023-08-08T12:44:24;26.80;44.20
37412;DHT22;23278;52.110;6.050;2023-08-08T12:46:50;26.80;44.30
37412;DHT22;23278;52.110;6.050;2023-08-08T12:49:16;27.40;44.10
37412;DHT22;23278;52.110;6.050;2023-08-08T12:51:42;28.10;43.10
37412;DHT22;23278;52.110;6.050;2023-08-08T12:54:08;27.80;43.70
37412;DHT22;23278;52.110;6.050;2023-08-08T12:56:34;27.50;43.90
37412;DHT22;23278;52.110;6.050;2023-08-08T12:59:00;27.50;44.40
37412;DHT22;23278;52.110;6.050;2023-08-08T13:01:28;27.00;44.60
37412;DHT22;23278;52.110;6.050;2023-08-08T13:03:54;26.30;45.00
37412;DHT22;23278;52.110;6.050;2023-08-08T13:06:20;25.60;46.30
37412;DHT22;23278;52.110;6.050;2023-08-08T13:08:46;25.10;47.20
37412;DHT22;23278;52.110;6.050;2023-08-08T13:11:12;25.70;46.50
37412;DHT22;23278;52.110;6.050;2023-08-08T13:13:38;27.20;44.70
37412;DHT22;23278;52.110;6.050;2023-08-08T13:16:04;27.00;44.30
37412;DHT22;23278;52.110;6.050;2023-08-08T13:18:30;27.40;44.30
37412;DHT22;23278;52.110;6.050;2023-08-08T13:20:56;27.70;43.90
37412;DHT22;23278;52.110;6.050;2023-08-08T13:23:22;28.30;42.80
37412;DHT22;23278;52.110;6.050;2023-08-08T13:25:48;28.70;42.20
37412;DHT22;23278;52.110;6.050;2023-08-08T13:28:14;27.70;43.80
37412;DHT22;23278;52.110;6.050;2023-08-08T13:30:40;26.60;45.50
37412;DHT22;23278;52.110;6.050;2023-08-08T13:33:09;26.50;45.70
37412;DHT22;23278;52.110;6.050;2023-08-08T13:35:35;26.50;46.20
37412;DHT22;23278;52.110;6.050;2023-08-08T13:38:02;26.20;46.60
37412;DHT22;23278;52.110;6.050;2023-08-08T13:40:28;25.60;47.70
37412;DHT22;23278;52.110;6.050;2023-08-08T13:42:54;25.10;48.90
37412;DHT22;23278;52.110;6.050;2023-08-08T13:45:20;24.60;49.30
37412;DHT22;23278;52.110;6.050;2023-08-08T13:47:48;24.30;50.00
37412;DHT22;23278;52.110;6.050;2023-08-08T13:50:14;24.00;50.60
37412;DHT22;23278;52.110;6.050;2023-08-08T13:52:40;23.80;51.40
37412;DHT22;23278;52.110;6.050;2023-08-08T13:55:07;23.40;51.90
37412;DHT22;23278;52.110;6.050;2023-08-08T13:57:34;23.30;52.40
37412;DHT22;23278;52.110;6.050;2023-08-08T14:00:01;25.30;49.40
37412;DHT22;23278;52.110;6.050;2023-08-08T14:02:33;27.50;46.80
37412;DHT22;23278;52.110;6.050;2023-08-08T14:04:59;27.90;46.20
37412;DHT22;23278;52.110;6.050;2023-08-08T14:07:25;27.90;45.10
37412;DHT22;23278;52.110;6.050;2023-08-08T14:09:51;28.50;43.70
37412;DHT22;23278;52.110;6.050;2023-08-08T14:12:17;28.40;43.20
37412;DHT22;23278;52.110;6.050;2023-08-08T14:14:43;27.10;44.90
37412;DHT22;23278;52.110;6.050;2023-08-08T14:17:09;25.90;46.90
37412;DHT22;23278;52.110;6.050;2023-08-08T14:19:35;25.00;48.40
37412;DHT22;23278;52.110;6.050;2023-08-08T14:22:00;24.30;49.80
37412;DHT22;23278;52.110;6.050;2023-08-08T14:24:26;23.80;51.30
37412;DHT22;23278;52.110;6.050;2023-08-08T14:26:52;23.50;51.80
37412;DHT22;23278;52.110;6.050;2023-08-08T14:29:18;23.40;52.50
37412;DHT22;23278;52.110;6.050;2023-08-08T14:31:44;23.30;53.00
37412;DHT22;23278;52.110;6.050;2023-08-08T14:34:10;24.40;51.10
37412;DHT22;23278;52.110;6.050;2023-08-08T14:36:35;24.90;50.30
37412;DHT22;23278;52.110;6.050;2023-08-08T14:39:01;24.90;50.30
37412;DHT22;23278;52.110;6.050;2023-08-08T14:41:27;24.90;50.50
37412;DHT22;23278;52.110;6.050;2023-08-08T14:43:53;25.20;49.90
37412;DHT22;23278;52.110;6.050;2023-08-08T14:46:19;26.10;49.30
37412;DHT22;23278;52.110;6.050;2023-08-08T14:48:45;25.70;49.30
37412;DHT22;23278;52.110;6.050;2023-08-08T14:51:12;25.20;50.30
37412;DHT22;23278;52.110;6.050;2023-08-08T14:53:42;24.70;51.00
37412;DHT22;23278;52.110;6.050;2023-08-08T14:56:09;24.30;51.80
37412;DHT22;23278;52.110;6.050;2023-08-08T14:58:35;23.90;52.80
37412;DHT22;23278;52.110;6.050;2023-08-08T15:01:01;23.60;53.10
37412;DHT22;23278;52.110;6.050;2023-08-08T15:03:28;24.00;52.30
37412;DHT22;23278;52.110;6.050;2023-08-08T15:05:54;24.80;51.10
37412;DHT22;23278;52.110;6.050;2023-08-08T15:08:19;24.90;51.00
37412;DHT22;23278;52.110;6.050;2023-08-08T15:10:47;24.60;51.60
37412;DHT22;23278;52.110;6.050;2023-08-08T15:13:12;24.30;52.40
37412;DHT22;23278;52.110;6.050;2023-08-08T15:15:38;23.90;52.00
37412;DHT22;23278;52.110;6.050;2023-08-08T15:18:05;23.40;52.60
37412;DHT22;23278;52.110;6.050;2023-08-08T15:20:31;22.90;53.90
37412;DHT22;23278;52.110;6.050;2023-08-08T15:22:57;22.30;55.70
37412;DHT22;23278;52.110;6.050;2023-08-08T15:25:23;22.00;56.80
37412;DHT22;23278;52.110;6.050;2023-08-08T15:27:48;22.50;55.20
37412;DHT22;23278;52.110;6.050;2023-08-08T15:30:14;22.50;55.00